createdAt,value
2023-03-03T00:01:48.351Z,-1.03
2023-03-03T00:07:32.325Z,-1.06
2023-03-03T00:12:42.932Z,-1.05
2023-03-03T00:18:39.396Z,-1.03
2023-03-03T00:23:45.422Z,-0.93
2023-03-03T00:29:02.027Z,-0.95
2023-03-03T00:34:41.883Z,-0.99
2023-03-03T00:40:16.739Z,-0.98
2023-03-03T00:45:26.041Z,-1.00
2023-03-03T00:50:54.814Z,-1.00
2023-03-03T00:56:04.184Z,-0.97
2023-03-03T01:01:19.196Z,-0.86
2023-03-03T01:06:28.549Z,-0.77
2023-03-03T01:12:05.553Z,-0.74
2023-03-03T01:17:09.762Z,-0.82
2023-03-03T01:22:36.217Z,-0.90
2023-03-03T01:27:49.931Z,-0.93
2023-03-03T01:33:13.550Z,-0.95
2023-03-03T01:38:24.324Z,-0.91
2023-03-03T01:44:12.171Z,-0.93
2023-03-03T01:50:30.053Z,-0.86
2023-03-03T01:55:43.793Z,-0.93
2023-03-03T02:01:16.004Z,-0.99
2023-03-03T02:06:46.956Z,-1.04
2023-03-03T02:12:37.223Z,-1.10
2023-03-03T02:18:06.636Z,-1.16
2023-03-03T02:23:36.629Z,-1.23
2023-03-03T02:28:53.003Z,-1.12
2023-03-03T02:34:07.723Z,-1.06
2023-03-03T02:39:26.641Z,-1.03
2023-03-03T02:45:00.800Z,-1.01
2023-03-03T02:50:16.877Z,-1.02
2023-03-03T02:55:33.838Z,-1.07
2023-03-03T03:00:42.623Z,-1.07
2023-03-03T03:06:18.000Z,-1.08
2023-03-03T03:11:25.644Z,-1.07
2023-03-03T03:16:49.350Z,-0.92
2023-03-03T03:21:52.893Z,-0.79
2023-03-03T03:26:56.920Z,-0.78
2023-03-03T03:32:00.971Z,-0.75
2023-03-03T03:38:04.703Z,-0.75
2023-03-03T03:43:08.624Z,-0.74
2023-03-03T03:48:12.560Z,-0.66
2023-03-03T03:53:21.694Z,-0.54
2023-03-03T03:58:28.580Z,-0.41
2023-03-03T04:03:35.504Z,-0.38
2023-03-03T04:08:50.985Z,-0.43
2023-03-03T04:14:00.407Z,-0.52
2023-03-03T04:19:23.967Z,-0.55
2023-03-03T04:25:28.858Z,-0.61
2023-03-03T04:30:52.397Z,-0.62
2023-03-03T04:36:06.880Z,-0.52
2023-03-03T04:41:10.274Z,-0.52
2023-03-03T04:46:58.007Z,-0.53
2023-03-03T04:52:34.680Z,-0.62
2023-03-03T04:58:04.250Z,-0.71
2023-03-03T05:03:35.242Z,-0.72
2023-03-03T05:08:48.784Z,-0.68
2023-03-03T05:13:52.384Z,-0.63
2023-03-03T05:18:55.735Z,-0.65
2023-03-03T05:23:58.972Z,-0.67
2023-03-03T05:29:05.702Z,-0.70
2023-03-03T05:34:29.620Z,-0.75
2023-03-03T05:39:35.862Z,-0.75
2023-03-03T05:45:35.468Z,-0.71
2023-03-03T05:51:02.343Z,-0.67
2023-03-03T05:56:38.642Z,-0.62
2023-03-03T06:01:45.308Z,-0.58
2023-03-03T06:07:14.230Z,-0.56
2023-03-03T06:12:55.233Z,-0.49
2023-03-03T06:18:42.127Z,-0.46
2023-03-03T06:24:25.332Z,-0.41
2023-03-03T06:29:32.103Z,-0.35
2023-03-03T06:34:46.922Z,-0.30
2023-03-03T06:40:00.171Z,-0.25
2023-03-03T06:45:19.778Z,-0.19
2023-03-03T06:50:26.359Z,-0.17
2023-03-03T06:56:00.075Z,-0.26
2023-03-03T07:01:17.558Z,-0.29
2023-03-03T07:06:28.258Z,-0.22
2023-03-03T07:11:31.771Z,-0.14
2023-03-03T07:16:37.547Z,-0.01
2023-03-03T07:21:41.680Z,0.12
2023-03-03T07:27:52.429Z,0.20
2023-03-03T07:33:32.084Z,0.17
2023-03-03T07:39:02.470Z,0.19
2023-03-03T07:44:21.447Z,0.29
2023-03-03T07:49:36.880Z,0.42
2023-03-03T07:54:43.528Z,0.53
2023-03-03T07:59:49.336Z,0.64
2023-03-03T08:04:56.006Z,0.67
2023-03-03T08:10:00.848Z,0.72
2023-03-03T08:15:42.802Z,0.79
2023-03-03T08:21:39.329Z,0.84
2023-03-03T08:26:42.705Z,0.94
2023-03-03T08:31:49.515Z,1.01
2023-03-03T08:37:03.046Z,1.07
2023-03-03T08:42:06.365Z,1.11
2023-03-03T08:47:09.653Z,1.19
2023-03-03T08:52:16.073Z,1.21
2023-03-03T08:57:19.706Z,1.21
2023-03-03T09:02:46.288Z,1.18
2023-03-03T09:08:10.818Z,1.15
2023-03-03T09:14:04.633Z,1.10
2023-03-03T09:19:46.492Z,1.10
2023-03-03T09:24:59.135Z,1.09
2023-03-03T09:31:01.835Z,1.13
2023-03-03T09:36:50.750Z,1.14
2023-03-03T09:41:54.131Z,1.18
2023-03-03T09:47:25.988Z,1.23
2023-03-03T09:53:26.910Z,1.24
2023-03-03T09:59:08.399Z,1.21
2023-03-03T10:04:50.536Z,1.18
2023-03-03T10:10:55.603Z,1.18
2023-03-03T10:16:48.983Z,1.20
2023-03-03T10:22:30.749Z,1.29
2023-03-03T10:28:30.370Z,1.34
2023-03-03T10:33:43.707Z,1.36
2023-03-03T10:38:59.413Z,1.35
2023-03-03T10:44:48.856Z,1.35
2023-03-03T10:50:16.625Z,1.34
2023-03-03T10:55:31.899Z,1.32
2023-03-03T11:00:39.405Z,1.36
2023-03-03T11:06:02.611Z,1.36
2023-03-03T11:11:20.218Z,1.31
2023-03-03T11:16:26.483Z,1.27
2023-03-03T11:21:48.882Z,1.28
2023-03-03T11:27:23.252Z,1.31
2023-03-03T11:32:38.123Z,1.33
2023-03-03T11:38:11.950Z,1.22
2023-03-03T11:43:36.043Z,1.15
2023-03-03T11:48:52.795Z,1.14
2023-03-03T11:54:36.578Z,1.14
2023-03-03T11:59:48.292Z,1.16
2023-03-03T12:06:20.076Z,1.13
2023-03-03T12:11:30.225Z,1.05
2023-03-03T12:17:01.915Z,1.06
2023-03-03T12:22:14.152Z,1.11
2023-03-03T12:27:17.616Z,1.16
2023-03-03T12:32:39.564Z,1.15
2023-03-03T12:38:41.412Z,1.11
2023-03-03T12:44:16.690Z,1.02
2023-03-03T12:49:20.601Z,1.00
2023-03-03T12:54:40.683Z,1.02
2023-03-03T13:00:01.465Z,1.02
2023-03-03T13:05:30.826Z,1.03
2023-03-03T13:11:21.616Z,1.03
2023-03-03T13:16:41.821Z,1.04
2023-03-03T13:21:51.735Z,0.99
2023-03-03T13:27:19.632Z,0.93
2023-03-03T13:32:48.790Z,0.94
2023-03-03T13:38:00.270Z,0.93
2023-03-03T13:43:13.081Z,0.93
2023-03-03T13:48:58.909Z,0.88
2023-03-03T13:54:16.667Z,0.93
2023-03-03T13:59:25.832Z,0.95
2023-03-03T14:05:41.262Z,0.95
2023-03-03T14:11:16.758Z,0.95
2023-03-03T14:16:39.659Z,0.93
2023-03-03T14:22:24.179Z,0.94
2023-03-03T14:28:01.790Z,0.95
2023-03-03T14:33:28.193Z,0.98
2023-03-03T14:38:45.634Z,0.98
2023-03-03T14:44:19.556Z,0.95
2023-03-03T14:49:33.559Z,0.93
2023-03-03T14:55:05.309Z,0.94
2023-03-03T15:00:15.079Z,0.97
2023-03-03T15:05:28.499Z,0.99
2023-03-03T15:11:20.646Z,0.95
2023-03-03T15:16:36.757Z,0.94
2023-03-03T15:22:01.690Z,0.93
2023-03-03T15:27:27.048Z,0.92
2023-03-03T15:33:00.417Z,0.95
2023-03-03T15:38:45.823Z,0.98
2023-03-03T15:44:08.156Z,0.96
2023-03-03T15:49:27.078Z,0.95
2023-03-03T15:54:41.914Z,0.90
2023-03-03T16:00:13.697Z,0.85
2023-03-03T16:05:46.182Z,0.89
2023-03-03T16:11:35.352Z,0.97
2023-03-03T16:16:52.166Z,1.00
2023-03-03T16:22:32.897Z,1.01
2023-03-03T16:28:20.392Z,0.98
2023-03-03T16:34:14.685Z,0.92
2023-03-03T16:39:32.876Z,0.88
2023-03-03T16:45:14.652Z,0.86
2023-03-03T16:50:38.892Z,0.89
2023-03-03T16:56:00.585Z,0.93
2023-03-03T17:01:31.731Z,0.88
2023-03-03T17:06:35.217Z,0.83
2023-03-03T17:12:00.756Z,0.85
2023-03-03T17:17:32.481Z,0.82
2023-03-03T17:23:14.403Z,0.82
2023-03-03T17:28:48.893Z,0.85
2023-03-03T17:34:40.070Z,0.85
2023-03-03T17:40:18.174Z,0.81
2023-03-03T17:46:15.396Z,0.81
2023-03-03T17:52:08.175Z,0.84
2023-03-03T17:57:14.455Z,0.89
2023-03-03T18:02:32.347Z,0.91
2023-03-03T18:07:53.543Z,0.88
2023-03-03T18:13:30.819Z,0.83
2023-03-03T18:19:23.351Z,0.78
2023-03-03T18:25:13.751Z,0.78
2023-03-03T18:30:59.309Z,0.82
2023-03-03T18:37:17.910Z,0.83
2023-03-03T18:42:43.875Z,0.84
2023-03-03T18:48:17.705Z,0.82
2023-03-03T18:53:42.255Z,0.80
2023-03-03T18:59:08.632Z,0.84
2023-03-03T19:04:25.981Z,0.94
2023-03-03T19:09:51.500Z,1.00
2023-03-03T19:15:22.650Z,1.00
2023-03-03T19:20:43.174Z,0.98
2023-03-03T19:25:46.465Z,0.92
2023-03-03T19:31:15.540Z,0.89
2023-03-03T19:36:22.650Z,0.92
2023-03-03T19:41:58.436Z,0.95
2023-03-03T19:47:24.093Z,1.00
2023-03-03T19:52:39.647Z,1.03
2023-03-03T19:58:18.585Z,1.01
2023-03-03T20:03:59.386Z,1.01
2023-03-03T20:09:23.116Z,1.03
2023-03-03T20:14:40.731Z,1.06
2023-03-03T20:19:44.260Z,1.12
2023-03-03T20:25:31.780Z,1.13
2023-03-03T20:31:03.636Z,1.14
2023-03-03T20:36:54.222Z,1.13
2023-03-03T20:42:20.972Z,1.13
2023-03-03T20:48:05.879Z,1.16
2023-03-03T20:53:20.065Z,1.20
2023-03-03T20:58:40.857Z,1.23
2023-03-03T21:04:45.621Z,1.23
2023-03-03T21:10:16.577Z,1.21
2023-03-03T21:15:26.626Z,1.23
2023-03-03T21:20:32.742Z,1.28
2023-03-03T21:25:58.695Z,1.31
2023-03-03T21:31:19.106Z,1.37
2023-03-03T21:37:17.681Z,1.39
2023-03-03T21:42:41.200Z,1.38
2023-03-03T21:47:44.644Z,1.34
2023-03-03T21:52:59.031Z,1.31
2023-03-03T21:58:11.350Z,1.35
2023-03-03T22:03:31.900Z,1.41
2023-03-03T22:08:51.242Z,1.44
2023-03-03T22:14:37.681Z,1.48
2023-03-03T22:19:51.603Z,1.48
2023-03-03T22:24:59.491Z,1.44
2023-03-03T22:30:03.001Z,1.41
2023-03-03T22:35:07.188Z,1.43
2023-03-03T22:40:24.412Z,1.43
2023-03-03T22:45:27.777Z,1.49
2023-03-03T22:50:30.929Z,1.53
2023-03-03T22:55:37.418Z,1.54
2023-03-03T23:00:42.668Z,1.51
2023-03-03T23:05:45.884Z,1.49
2023-03-03T23:10:49.168Z,1.49
2023-03-03T23:15:52.621Z,1.53
2023-03-03T23:20:56.904Z,1.55
2023-03-03T23:26:02.701Z,1.56
2023-03-03T23:31:07.750Z,1.57
2023-03-03T23:36:11.297Z,1.53
2023-03-03T23:41:16.938Z,1.51
2023-03-03T23:46:23.242Z,1.54
2023-03-03T23:51:49.922Z,1.56
2023-03-03T23:57:03.417Z,1.58
